Time;durP1;ratioP1;P1;durP2;ratioP2;P2;SDS_P1;SDS_P2;PMS_P1;PMS_P2;Temp;Humidity;BMP_temperature;BMP_pressure;BME280_temperature;BME280_humidity;BME280_pressure;Samples;Min_cycle;Max_cycle;Signal;HPM_P1;HPM_P2
2022/04/18 00:00:22;;;;;;;;;;;;;;;20.24;38.24;101830.72;4947604;28;19973;-79
2022/04/18 00:02:47;;;;;;;;;;;;;;;20.23;38.50;101834.56;4953700;29;20016;-79
2022/04/18 00:05:13;;;;;;;;;;;;;;;20.23;38.35;101832.63;4953281;29;20271;-79
2022/04/18 00:07:38;;;;;;;;;;;;;;;20.22;38.68;101831.00;4939037;29;20017;-82
2022/04/18 00:10:04;;;;;;;;;;;;;;;20.23;38.33;101831.81;4936414;29;19923;-79
2022/04/18 00:12:29;;;;;;;;;;;;;;;20.23;38.39;101840.03;4953914;28;19965;-79
2022/04/18 00:14:55;;;;;;;;;;;;;;;20.22;38.66;101841.16;4953160;28;19926;-79
2022/04/18 00:17:20;;;;;;;;;;;;;;;20.20;38.47;101835.94;4952007;28;20450;-79
2022/04/18 00:19:45;;;;;;;;;;;;;;;20.20;38.38;101835.94;4948528;29;19926;-79
2022/04/18 00:22:11;;;;;;;;;;;;;;;20.20;38.47;101835.13;4945764;29;19927;-80
2022/04/18 00:24:36;;;;;;;;;;;;;;;20.19;38.69;101838.97;4952300;28;19933;-78
2022/04/18 00:27:02;;;;;;;;;;;;;;;20.18;38.50;101831.84;4948691;28;20375;-79
2022/04/18 00:29:27;;;;;;;;;;;;;;;20.17;38.44;101830.22;4958516;28;20379;-79
2022/04/18 00:31:52;;;;;;;;;;;;;;;20.16;38.56;101829.38;4952247;29;19923;-79
2022/04/18 00:34:17;;;;;;;;;;;;;;;20.15;38.51;101827.72;4947045;28;20371;-79
2022/04/18 00:36:44;;;;;;;;;;;;;;;20.15;38.57;101819.50;4953583;29;20283;-78
2022/04/18 00:39:10;;;;;;;;;;;;;;;20.14;38.39;101823.34;4953469;28;19973;-79
2022/04/18 00:41:35;;;;;;;;;;;;;;;20.14;38.46;101825.28;4953683;28;20348;-79
2022/04/18 00:44:00;;;;;;;;;;;;;;;20.14;38.65;101825.28;4956637;28;20307;-79
2022/04/18 00:46:26;;;;;;;;;;;;;;;20.13;38.69;101826.38;4957365;29;20272;-79
2022/04/18 00:48:51;;;;;;;;;;;;;;;20.12;38.65;101822.81;4956654;28;19918;-79
2022/04/18 00:51:19;;;;;;;;;;;;;;;20.13;38.61;101834.59;4955535;29;19931;-79
2022/04/18 00:53:44;;;;;;;;;;;;;;;20.12;38.56;101824.75;4956602;29;19929;-76
2022/04/18 00:56:13;;;;;;;;;;;;;;;20.11;38.64;101826.66;4956807;29;19918;-78
2022/04/18 00:58:40;;;;;;;;;;;;;;;20.10;38.77;101819.53;4954477;28;19978;-78
2022/04/18 01:01:05;;;;;;;;;;;;;;;20.10;38.54;101820.34;4949566;29;19925;-79
2022/04/18 01:03:31;;;;;;;;;;;;;;;20.10;38.63;101828.56;4956006;29;19923;-79
2022/04/18 01:05:59;;;;;;;;;;;;;;;20.10;38.52;101830.50;4945764;29;20330;-79
2022/04/18 01:08:25;;;;;;;;;;;;;;;20.09;38.51;101824.19;4971686;28;19923;-79
2022/04/18 01:10:51;;;;;;;;;;;;;;;20.08;38.86;101819.81;4956327;28;19923;-78
2022/04/18 01:13:16;;;;;;;;;;;;;;;20.08;38.71;101818.97;4954465;28;19929;-79
2022/04/18 01:15:42;;;;;;;;;;;;;;;20.08;38.48;101822.56;4971588;28;19923;-80
2022/04/18 01:18:07;;;;;;;;;;;;;;;20.06;38.46;101819.28;4968081;28;19925;-81
2022/04/18 01:20:36;;;;;;;;;;;;;;;20.07;38.51;101822.84;4949934;29;20001;-79
2022/04/18 01:23:04;;;;;;;;;;;;;;;20.07;38.72;101823.66;4956237;28;19923;-79
2022/04/18 01:30:58;;;;;;;;;;;;;;;20.05;38.60;101827.78;4956100;29;20065;-79
2022/04/18 01:33:23;;;;;;;;;;;;;;;20.04;38.66;101820.66;4955863;29;20021;-78
2022/04/18 01:35:48;;;;;;;;;;;;;;;20.04;38.76;101820.66;4955290;28;19922;-79
2022/04/18 01:38:14;;;;;;;;;;;;;;;20.03;38.64;101817.09;4956423;28;19937;-80
2022/04/18 01:40:39;;;;;;;;;;;;;;;20.03;38.63;101814.38;4956808;28;19930;-78
2022/04/18 01:43:05;;;;;;;;;;;;;;;20.03;38.73;101817.09;4956258;28;19934;-79
2022/04/18 01:45:31;;;;;;;;;;;;;;;20.03;38.79;101808.03;4945358;29;19978;-79
2022/04/18 01:47:56;;;;;;;;;;;;;;;20.02;38.54;101815.44;4971011;28;20001;-79
2022/04/18 01:50:21;;;;;;;;;;;;;;;20.02;38.73;101809.97;4940913;28;20470;-78
2022/04/18 01:52:46;;;;;;;;;;;;;;;20.01;38.84;101807.50;4971274;28;19923;-79
2022/04/18 01:55:11;;;;;;;;;;;;;;;20.01;38.74;101811.06;4965554;28;19930;-79
2022/04/18 01:57:37;;;;;;;;;;;;;;;20.01;38.49;101813.81;4967970;28;20009;-79
2022/04/18 02:00:03;;;;;;;;;;;;;;;19.99;38.75;101807.78;4953982;29;19918;-79
2022/04/18 02:02:28;;;;;;;;;;;;;;;20.01;38.73;101807.50;4955164;29;19922;-79
2022/04/18 02:04:54;;;;;;;;;;;;;;;20.00;38.72;101805.84;4954015;28;19928;-79
2022/04/18 02:07:19;;;;;;;;;;;;;;;19.99;38.68;101805.03;4955880;28;19919;-79
2022/04/18 02:09:44;;;;;;;;;;;;;;;19.99;38.70;101806.97;4955615;28;19926;-80
2022/04/18 02:12:09;;;;;;;;;;;;;;;19.98;38.73;101802.56;4954311;29;19930;-78
2022/04/18 02:14:35;;;;;;;;;;;;;;;19.98;38.73;101799.81;4956046;29;19902;-78
2022/04/18 02:17:00;;;;;;;;;;;;;;;19.98;38.73;101799.81;4969542;28;20001;-79
2022/04/18 02:19:25;;;;;;;;;;;;;;;19.98;38.51;101805.31;4954510;28;20020;-79
2022/04/18 02:21:50;;;;;;;;;;;;;;;19.96;39.04;101794.63;4954750;29;19933;-80
2022/04/18 02:24:16;;;;;;;;;;;;;;;19.97;38.89;101798.19;4938608;29;19969;-79
2022/04/18 02:26:41;;;;;;;;;;;;;;;19.96;38.92;101797.38;4954989;28;20012;-79
2022/04/18 02:29:06;;;;;;;;;;;;;;;19.96;38.80;101797.38;4952400;29;19923;-80
2022/04/18 02:31:31;;;;;;;;;;;;;;;19.96;38.91;101799.28;4953931;29;20274;-81
2022/04/18 02:33:57;;;;;;;;;;;;;;;19.94;38.83;101794.09;4945532;28;19970;-79
2022/04/18 02:36:22;;;;;;;;;;;;;;;19.96;38.73;101796.53;4955720;28;20032;-80
2022/04/18 02:38:47;;;;;;;;;;;;;;;19.95;38.68;101800.38;4943062;29;19965;-81
2022/04/18 02:41:12;;;;;;;;;;;;;;;19.94;38.84;101785.88;4951866;29;20327;-79
2022/04/18 02:43:37;;;;;;;;;;;;;;;19.94;38.61;101790.53;4948856;28;20360;-79
2022/04/18 02:46:03;;;;;;;;;;;;;;;19.94;38.92;101785.06;4958443;28;19923;-79
2022/04/18 02:48:29;;;;;;;;;;;;;;;19.93;38.77;101789.69;4954828;28;19930;-79
2022/04/18 02:50:55;;;;;;;;;;;;;;;19.92;38.75;101790.81;4950071;29;20367;-80
2022/04/18 02:53:20;;;;;;;;;;;;;;;19.93;38.48;101783.41;4966077;28;19934;-79
2022/04/18 02:55:45;;;;;;;;;;;;;;;19.91;38.80;101786.44;4966759;28;20379;-80
2022/04/18 02:58:10;;;;;;;;;;;;;;;19.91;38.74;101780.09;4968652;28;19957;-79
2022/04/18 03:00:36;;;;;;;;;;;;;;;19.91;38.81;101789.19;4954934;28;20394;-79
2022/04/18 03:03:01;;;;;;;;;;;;;;;19.90;38.81;101787.50;4953059;29;19958;-80
2022/04/18 03:05:26;;;;;;;;;;;;;;;19.91;38.88;101777.38;4944749;29;20408;-80
2022/04/18 03:07:52;;;;;;;;;;;;;;;19.89;38.69;101770.25;4954227;29;19926;-82
2022/04/18 03:11:02;;;;;;;;;;;;;;;19.90;38.74;101779.28;4954547;29;19927;-79
2022/04/18 03:13:02;;;;;;;;;;;;;;;19.88;38.86;101763.13;4946849;28;20084;-79
2022/04/18 03:15:27;;;;;;;;;;;;;;;19.88;38.82;101774.09;4951044;29;20026;-81
2022/04/18 03:17:53;;;;;;;;;;;;;;;19.87;38.76;101772.44;4968803;28;20330;-81
2022/04/18 03:20:18;;;;;;;;;;;;;;;19.87;38.87;101768.88;4954058;28;19918;-79
2022/04/18 03:22:43;;;;;;;;;;;;;;;19.87;38.84;101769.69;4954708;29;19934;-79
2022/04/18 03:25:08;;;;;;;;;;;;;;;19.87;39.02;101777.94;4952224;28;19934;-79
2022/04/18 03:27:33;;;;;;;;;;;;;;;19.87;38.95;101769.69;4954558;29;19929;-79
2022/04/18 03:29:59;;;;;;;;;;;;;;;19.86;38.78;101767.25;4953881;28;19923;-79
2022/04/18 03:32:24;;;;;;;;;;;;;;;19.86;38.77;101767.25;4952666;28;19930;-79
2022/04/18 03:34:49;;;;;;;;;;;;;;;19.85;38.85;101768.34;4936880;29;19977;-79
2022/04/18 03:39:59;;;;;;;;;;;;;;;19.84;38.97;101759.31;4941627;29;19978;-77
2022/04/18 03:42:31;;;;;;;;;;;;;;;19.83;38.84;101757.69;4947219;29;19931;-76
2022/04/18 03:44:58;;;;;;;;;;;;;;;19.82;39.04;101756.00;4944077;28;20311;-79
2022/04/18 03:47:24;;;;;;;;;;;;;;;19.83;38.84;101762.31;4954103;29;19928;-79
2022/04/18 03:49:49;;;;;;;;;;;;;;;19.83;39.03;101760.41;4968152;28;20353;-79
2022/04/18 03:52:14;;;;;;;;;;;;;;;19.83;38.95;101759.56;4936564;29;19937;-79
2022/04/18 03:54:40;;;;;;;;;;;;;;;19.82;38.93;101761.50;4940430;29;20018;-79
2022/04/18 03:57:06;;;;;;;;;;;;;;;19.81;38.87;101756.31;4953576;28;20375;-79
2022/04/18 03:59:32;;;;;;;;;;;;;;;19.81;38.98;101746.16;4968800;28;19965;-80
2022/04/18 04:01:57;;;;;;;;;;;;;;;19.82;38.78;101746.97;4951630;28;20030;-82
2022/04/18 04:04:22;;;;;;;;;;;;;;;19.81;39.00;101745.34;4953549;29;20471;-80
2022/04/18 04:06:47;;;;;;;;;;;;;;;19.80;39.04;101747.25;4953330;28;19937;-81
2022/04/18 04:09:12;;;;;;;;;;;;;;;19.79;38.81;101748.34;4953546;28;20375;-79
2022/04/18 04:11:38;;;;;;;;;;;;;;;19.79;38.97;101748.34;4949630;29;20010;-79
2022/04/18 04:14:03;;;;;;;;;;;;;;;19.78;39.01;101749.47;4953026;29;19933;-79
2022/04/18 04:16:29;;;;;;;;;;;;;;;19.79;38.72;101753.84;4958326;28;19919;-79
2022/04/18 04:18:54;;;;;;;;;;;;;;;19.78;38.82;101746.72;4975168;28;19985;-79
2022/04/18 04:21:19;;;;;;;;;;;;;;;19.78;39.11;101748.63;4957222;28;19953;-81
2022/04/18 04:23:45;;;;;;;;;;;;;;;19.77;38.93;101749.75;4939507;28;20291;-79
2022/04/18 04:26:10;;;;;;;;;;;;;;;19.77;38.78;101749.75;4971130;28;19918;-79
2022/04/18 04:28:35;;;;;;;;;;;;;;;19.77;38.83;101749.75;4960217;28;20359;-80
2022/04/18 04:31:03;;;;;;;;;;;;;;;19.76;38.87;101745.38;4959190;28;19942;-80
2022/04/18 04:33:30;;;;;;;;;;;;;;;19.76;38.87;101745.38;4952698;28;19926;-79
2022/04/18 04:35:56;;;;;;;;;;;;;;;19.75;38.74;101744.53;4941405;29;20295;-78
2022/04/18 04:38:21;;;;;;;;;;;;;;;19.74;38.82;101745.63;4958410;28;19926;-79
2022/04/18 04:40:48;;;;;;;;;;;;;;;19.74;38.94;101742.91;4960020;28;19929;-79
2022/04/18 04:43:13;;;;;;;;;;;;;;;19.74;39.06;101745.63;4954463;29;19930;-79
2022/04/18 04:45:39;;;;;;;;;;;;;;;19.73;38.83;101740.41;4960235;29;19918;-79
2022/04/18 04:48:04;;;;;;;;;;;;;;;19.73;39.01;101737.69;4959034;28;19922;-80
2022/04/18 04:50:31;;;;;;;;;;;;;;;19.73;38.95;101737.69;4959754;28;19919;-79
2022/04/18 04:52:57;;;;;;;;;;;;;;;19.72;39.05;101739.59;4970909;28;20367;-79
2022/04/18 04:55:22;;;;;;;;;;;;;;;19.73;38.98;101746.75;4957263;28;19930;-79
2022/04/18 04:57:47;;;;;;;;;;;;;;;19.71;38.83;101740.72;4953415;29;19930;-79
2022/04/18 05:00:13;;;;;;;;;;;;;;;19.71;38.87;101746.19;4955171;29;19927;-79
2022/04/18 05:02:38;;;;;;;;;;;;;;;19.70;38.76;101750.03;4953499;29;19972;-81
2022/04/18 05:05:03;;;;;;;;;;;;;;;19.70;38.99;101744.53;4958876;28;19923;-83
2022/04/18 05:07:29;;;;;;;;;;;;;;;19.70;38.83;101755.50;4958548;28;19923;-79
2022/04/18 05:09:54;;;;;;;;;;;;;;;19.70;38.99;101761.00;4959801;29;20264;-79
2022/04/18 05:12:19;;;;;;;;;;;;;;;19.69;38.80;101761.28;4957398;28;19933;-80
2022/04/18 05:14:45;;;;;;;;;;;;;;;19.69;39.15;101753.06;4972271;28;19926;-80
2022/04/18 05:17:10;;;;;;;;;;;;;;;19.69;38.97;101756.63;4970923;28;19933;-79
2022/04/18 05:19:35;;;;;;;;;;;;;;;19.68;38.96;101755.00;4955287;28;19923;-80
2022/04/18 05:22:00;;;;;;;;;;;;;;;19.68;39.00;101752.25;4947355;29;20365;-80
2022/04/18 05:24:26;;;;;;;;;;;;;;;19.68;38.85;101760.47;4958914;29;19922;-79
2022/04/18 05:26:51;;;;;;;;;;;;;;;19.67;39.18;101761.56;4957313;28;19930;-80
2022/04/18 05:29:16;;;;;;;;;;;;;;;19.66;38.97;101755.22;4970252;28;20342;-79
2022/04/18 05:31:41;;;;;;;;;;;;;;;19.67;39.19;101756.06;4954941;29;19922;-80
2022/04/18 05:34:07;;;;;;;;;;;;;;;19.67;38.99;101754.16;4953869;28;20070;-80
2022/04/18 05:36:32;;;;;;;;;;;;;;;19.66;39.04;101760.72;4955767;29;19977;-80
2022/04/18 05:38:57;;;;;;;;;;;;;;;19.66;38.79;101768.94;4954805;29;19929;-79
2022/04/18 05:41:22;;;;;;;;;;;;;;;19.65;39.06;101764.56;4955484;29;20389;-79
2022/04/18 05:43:49;;;;;;;;;;;;;;;19.66;38.88;101771.66;4956315;29;19930;-79
2022/04/18 05:46:15;;;;;;;;;;;;;;;19.66;38.88;101768.13;4955783;28;19926;-79
2022/04/18 05:48:40;;;;;;;;;;;;;;;19.65;39.00;101770.03;4954626;29;19930;-80
2022/04/18 05:51:05;;;;;;;;;;;;;;;19.65;39.04;101772.78;4951843;29;19919;-83
2022/04/18 05:53:30;;;;;;;;;;;;;;;19.65;39.02;101766.47;4944877;29;20382;-80
2022/04/18 05:55:56;;;;;;;;;;;;;;;19.65;38.85;101767.31;4950091;28;19989;-80
2022/04/18 05:58:21;;;;;;;;;;;;;;;19.66;39.03;101762.63;4955452;28;19926;-80
2022/04/18 06:00:46;;;;;;;;;;;;;;;19.66;39.06;101770.84;4956110;28;19932;-79
2022/04/18 06:03:12;;;;;;;;;;;;;;;19.65;38.75;101771.94;4955321;29;19922;-79
2022/04/18 06:05:37;;;;;;;;;;;;;;;19.65;38.94;101772.78;4962998;28;19926;-79
2022/04/18 06:08:03;;;;;;;;;;;;;;;19.66;38.85;101773.59;4955409;29;20379;-79
2022/04/18 06:10:29;;;;;;;;;;;;;;;19.66;39.06;101781.81;4953818;29;20810;-79
2022/04/18 06:12:54;;;;;;;;;;;;;;;19.65;38.98;101783.75;4970227;28;19963;-80
2022/04/18 06:15:20;;;;;;;;;;;;;;;19.65;38.91;101785.66;4954157;28;20264;-79
2022/04/18 06:17:45;;;;;;;;;;;;;;;19.65;39.02;101791.13;4955700;28;20379;-79
2022/04/18 06:20:10;;;;;;;;;;;;;;;19.64;38.95;101787.56;4955144;28;19994;-81
2022/04/18 06:22:35;;;;;;;;;;;;;;;19.65;38.95;101774.69;4954989;29;19951;-79
2022/04/18 06:25:01;;;;;;;;;;;;;;;19.65;39.04;101774.69;4942769;29;20057;-79
2022/04/18 06:27:26;;;;;;;;;;;;;;;19.65;38.90;101772.78;4934616;29;19923;-79
2022/04/18 06:29:51;;;;;;;;;;;;;;;19.64;38.95;101771.13;4936841;29;19930;-79
2022/04/18 06:32:17;;;;;;;;;;;;;;;19.63;38.88;101772.25;4953937;29;20382;-80
2022/04/18 06:34:42;;;;;;;;;;;;;;;19.65;38.95;101774.69;4953984;29;20394;-80
2022/04/18 06:37:08;;;;;;;;;;;;;;;19.66;38.86;101790.03;4955455;28;19950;-80
2022/04/18 06:39:33;;;;;;;;;;;;;;;19.65;39.02;101785.66;4951064;28;19923;-80
2022/04/18 06:42:00;;;;;;;;;;;;;;;19.65;39.02;101777.41;4954607;28;20335;-80
2022/04/18 06:44:25;;;;;;;;;;;;;;;19.65;39.15;101774.69;4969047;28;19926;-79
2022/04/18 06:46:50;;;;;;;;;;;;;;;19.65;38.89;101785.66;4954803;28;20300;-79
2022/04/18 06:49:16;;;;;;;;;;;;;;;19.65;39.03;101781.00;4969024;28;19922;-79
2022/04/18 06:51:41;;;;;;;;;;;;;;;19.66;39.17;101781.81;4954354;29;19966;-79
2022/04/18 06:54:06;;;;;;;;;;;;;;;19.66;39.08;101768.94;4954157;29;19937;-79
2022/04/18 06:59:15;;;;;;;;;;;;;;;19.66;38.84;101766.19;4953880;29;20494;-79
2022/04/18 07:01:41;;;;;;;;;;;;;;;19.68;38.95;101774.19;4954955;29;20033;-80
2022/04/18 07:04:07;;;;;;;;;;;;;;;19.68;38.90;101771.44;4953417;29;19929;-79
2022/04/18 07:06:32;;;;;;;;;;;;;;;19.69;38.96;101766.78;4954351;28;20021;-79
2022/04/18 07:08:58;;;;;;;;;;;;;;;19.70;38.86;101765.66;4952188;29;19923;-78
2022/04/18 07:11:23;;;;;;;;;;;;;;;19.70;39.02;101771.97;4952741;29;19926;-78
2022/04/18 07:13:48;;;;;;;;;;;;;;;19.71;38.91;101776.34;4944707;28;20363;-78
2022/04/18 07:16:14;;;;;;;;;;;;;;;19.72;39.11;101768.94;4944810;29;19926;-82
2022/04/18 07:18:39;;;;;;;;;;;;;;;19.71;39.09;101770.06;4947849;29;20324;-79
2022/04/18 07:21:04;;;;;;;;;;;;;;;19.72;39.04;101768.94;4941828;29;19926;-78
2022/04/18 07:23:29;;;;;;;;;;;;;;;19.72;38.96;101768.94;4949214;29;19934;-78
2022/04/18 07:25:55;;;;;;;;;;;;;;;19.73;38.96;101770.56;4948097;29;19934;-78
2022/04/18 07:28:20;;;;;;;;;;;;;;;19.72;38.96;101772.50;4953423;28;19969;-78
2022/04/18 07:30:46;;;;;;;;;;;;;;;19.72;39.18;101769.75;4953264;29;19926;-78
2022/04/18 07:33:14;;;;;;;;;;;;;;;19.72;38.89;101775.25;4966112;28;20010;-78
2022/04/18 07:35:39;;;;;;;;;;;;;;;19.74;38.93;101774.97;4947575;28;19923;-78
2022/04/18 07:40:48;;;;;;;;;;;;;;;19.73;38.98;101771.41;4954411;29;19929;-78
2022/04/18 07:43:14;;;;;;;;;;;;;;;19.74;39.10;101764.81;4953498;28;20307;-81
2022/04/18 07:45:39;;;;;;;;;;;;;;;19.74;39.07;101761.28;4953828;29;20268;-78
2022/04/18 07:48:10;;;;;;;;;;;;;;;19.75;39.12;101754.69;4968711;28;19970;-78
2022/04/18 07:53:20;;;;;;;;;;;;;;;19.76;39.00;101761.81;4946667;29;20058;-78
2022/04/18 07:55:45;;;;;;;;;;;;;;;19.77;38.91;101758.78;4952869;28;20025;-78
2022/04/18 07:58:11;;;;;;;;;;;;;;;19.77;39.19;101764.25;4952405;29;20009;-78
2022/04/18 08:00:36;;;;;;;;;;;;;;;19.76;39.06;101757.16;4953930;28;19930;-79
2022/04/18 08:03:02;;;;;;;;;;;;;;;19.78;39.11;101754.94;4950495;29;19978;-79
2022/04/18 08:05:27;;;;;;;;;;;;;;;19.78;39.28;101748.63;4950530;29;19930;-78
2022/04/18 08:07:52;;;;;;;;;;;;;;;19.79;39.19;101761.25;4949132;28;19926;-79
2022/04/18 08:10:18;;;;;;;;;;;;;;;19.79;39.08;101756.59;4968084;28;19930;-81
2022/04/18 08:12:43;;;;;;;;;;;;;;;19.80;38.93;101754.66;4936207;28;19923;-78
2022/04/18 08:15:08;;;;;;;;;;;;;;;19.80;39.27;101755.47;4938314;29;20272;-78
2022/04/18 08:17:34;;;;;;;;;;;;;;;19.80;39.12;101751.91;4953184;28;20331;-78
2022/04/18 08:19:59;;;;;;;;;;;;;;;19.80;39.05;101747.25;4954009;29;19918;-78
2022/04/18 08:22:24;;;;;;;;;;;;;;;19.79;39.34;101753.03;4952043;29;20414;-78
2022/04/18 08:24:49;;;;;;;;;;;;;;;19.79;39.18;101747.53;4949073;29;19930;-78
2022/04/18 08:27:15;;;;;;;;;;;;;;;19.79;39.32;101745.63;4956885;28;19927;-78
2022/04/18 08:29:40;;;;;;;;;;;;;;;19.80;39.45;101749.16;4957856;28;20554;-78
2022/04/18 08:32:05;;;;;;;;;;;;;;;19.79;39.24;101745.63;4953281;29;20017;-79
2022/04/18 08:34:31;;;;;;;;;;;;;;;19.79;39.51;101751.09;4952542;29;19930;-79
2022/04/18 08:36:56;;;;;;;;;;;;;;;19.78;39.17;101745.88;4952092;29;19929;-78
2022/04/18 08:39:21;;;;;;;;;;;;;;;19.78;39.43;101746.72;4964518;28;20728;-78
2022/04/18 08:41:49;;;;;;;;;;;;;;;19.80;39.47;101746.44;4946358;29;20410;-78
2022/04/18 08:44:15;;;;;;;;;;;;;;;19.80;39.30;101752.72;4953674;29;20407;-78
2022/04/18 08:46:41;;;;;;;;;;;;;;;19.80;39.39;101754.66;4951607;28;19918;-78
2022/04/18 08:54:35;;;;;;;;;;;;;;;19.79;39.44;101750.28;4937145;29;19982;-77
2022/04/18 08:57:00;;;;;;;;;;;;;;;19.79;39.31;101745.63;4951232;28;19927;-78
2022/04/18 08:59:25;;;;;;;;;;;;;;;19.81;39.52;101750.84;4937769;29;20363;-78
2022/04/18 09:01:52;;;;;;;;;;;;;;;19.81;39.63;101745.34;4952369;28;19982;-78
2022/04/18 09:04:21;;;;;;;;;;;;;;;19.82;39.43;101744.22;4955540;28;19940;-77
2022/04/18 09:06:46;;;;;;;;;;;;;;;19.82;39.85;101738.75;4943002;29;19927;-78
2022/04/18 09:09:12;;;;;;;;;;;;;;;19.82;39.76;101742.31;4952458;29;19930;-80
2022/04/18 09:11:37;;;;;;;;;;;;;;;19.83;39.78;101743.13;4942906;29;20030;-79
2022/04/18 09:14:02;;;;;;;;;;;;;;;19.83;40.03;101741.22;4956551;28;19923;-79
2022/04/18 09:16:29;;;;;;;;;;;;;;;19.85;40.08;101739.00;4963281;28;19962;-79
2022/04/18 09:19:12;;;;;;;;;;;;;;;19.87;40.04;101734.06;4960588;28;19919;-78
2022/04/18 09:21:55;;;;;;;;;;;;;;;19.87;39.92;101733.25;4935398;29;20319;-79
2022/04/18 09:24:24;;;;;;;;;;;;;;;19.87;40.14;101731.31;4948574;29;19922;-79
2022/04/18 09:26:50;;;;;;;;;;;;;;;19.89;39.99;101731.88;4952881;28;19986;-79
2022/04/18 09:29:17;;;;;;;;;;;;;;;19.89;40.29;101731.88;4956450;29;19926;-79
2022/04/18 09:31:42;;;;;;;;;;;;;;;19.91;40.13;101723.38;4956212;28;19961;-78
2022/04/18 09:34:07;;;;;;;;;;;;;;;19.91;40.26;101723.38;4948794;28;19927;-79
2022/04/18 09:36:33;;;;;;;;;;;;;;;19.92;40.15;101725.00;4952599;29;19927;-76
2022/04/18 09:38:58;;;;;;;;;;;;;;;19.94;40.53;101728.28;4967469;28;20449;-77
2022/04/18 09:41:26;;;;;;;;;;;;;;;19.95;40.22;101731.84;4956025;28;20335;-82
2022/04/18 09:43:53;;;;;;;;;;;;;;;19.95;40.28;101724.44;4956451;28;20028;-77
2022/04/18 09:46:19;;;;;;;;;;;;;;;19.97;40.40;101726.91;4956622;29;19973;-77
2022/04/18 09:48:45;;;;;;;;;;;;;;;19.99;40.40;101716.47;4961097;28;19966;-76
2022/04/18 09:51:12;;;;;;;;;;;;;;;20.01;40.45;101715.09;4941192;29;19977;-75
2022/04/18 09:53:39;;;;;;;;;;;;;;;20.03;40.57;101717.53;4954932;29;19922;-75
2022/04/18 09:56:04;;;;;;;;;;;;;;;20.05;40.39;101718.88;4956491;28;19941;-76
2022/04/18 09:58:30;;;;;;;;;;;;;;;20.10;40.55;101709.81;4955396;28;20379;-76
2022/04/18 10:00:56;;;;;;;;;;;;;;;20.12;40.42;101706.78;4956390;29;19923;-76
2022/04/18 10:03:21;;;;;;;;;;;;;;;20.14;40.47;101707.34;4956904;28;19922;-77
2022/04/18 10:05:50;;;;;;;;;;;;;;;20.16;40.33;101703.22;4955793;28;20299;-77
2022/04/18 10:08:16;;;;;;;;;;;;;;;20.20;40.44;101698.78;4950516;28;20191;-76
2022/04/18 10:10:41;;;;;;;;;;;;;;;20.23;40.47;101702.88;4954370;28;20279;-77
2022/04/18 10:13:10;;;;;;;;;;;;;;;20.24;40.28;101701.78;4941831;28;19941;-77
2022/04/18 10:15:36;;;;;;;;;;;;;;;20.25;40.28;101697.94;4956037;28;19925;-77
2022/04/18 10:18:02;;;;;;;;;;;;;;;20.28;40.40;101697.34;4955320;29;19926;-77
2022/04/18 10:20:46;;;;;;;;;;;;;;;20.29;40.12;101697.06;4947074;29;20386;-87
2022/04/18 10:23:11;;;;;;;;;;;;;;;20.30;40.20;101695.16;4956692;29;19929;-79
2022/04/18 10:25:46;;;;;;;;;;;;;;;20.30;40.19;101681.44;4955956;28;20282;-77
2022/04/18 10:28:26;;;;;;;;;;;;;;;20.30;40.25;101690.47;4943355;29;19926;-76
2022/04/18 10:30:56;;;;;;;;;;;;;;;20.31;39.89;101683.09;4949474;29;19929;-77
2022/04/18 10:33:22;;;;;;;;;;;;;;;20.33;40.07;101683.59;4956277;28;19925;-77
2022/04/18 10:35:51;;;;;;;;;;;;;;;20.34;39.98;101681.69;4969382;28;20073;-77
2022/04/18 10:38:16;;;;;;;;;;;;;;;20.33;39.86;101680.84;4970874;28;20024;-77
2022/04/18 10:40:41;;;;;;;;;;;;;;;20.35;39.65;101683.31;4955158;29;20025;-77
2022/04/18 10:43:07;;;;;;;;;;;;;;;20.36;39.69;101688.53;4954024;29;20334;-77
2022/04/18 10:45:34;;;;;;;;;;;;;;;20.36;39.59;101679.47;4952867;28;19923;-79
2022/04/18 10:48:00;;;;;;;;;;;;;;;20.36;39.67;101679.47;4971119;28;19969;-78
2022/04/18 10:50:27;;;;;;;;;;;;;;;20.36;39.75;101684.94;4956448;28;20846;-77
2022/04/18 10:53:04;;;;;;;;;;;;;;;20.37;39.58;101679.19;4954417;29;19933;-80
2022/04/18 10:55:30;;;;;;;;;;;;;;;20.38;39.49;101677.25;4955788;29;19929;-78
2022/04/18 10:58:10;;;;;;;;;;;;;;;20.38;39.38;101674.50;4955835;28;19922;-77
2022/04/18 11:00:54;;;;;;;;;;;;;;;20.38;39.44;101666.28;4955411;28;19925;-77
2022/04/18 11:03:38;;;;;;;;;;;;;;;20.39;39.35;101666.00;4940289;28;19995;-77
2022/04/18 11:06:24;;;;;;;;;;;;;;;20.39;39.25;101670.69;4953405;29;19918;-81
2022/04/18 11:08:59;;;;;;;;;;;;;;;20.40;39.16;101669.56;4954121;28;19930;-79
2022/04/18 11:11:32;;;;;;;;;;;;;;;20.41;39.02;101660.22;4937850;29;19919;-80
2022/04/18 11:13:59;;;;;;;;;;;;;;;20.41;38.97;101658.31;4954775;28;20341;-79
2022/04/18 11:16:24;;;;;;;;;;;;;;;20.41;38.93;101658.31;4955346;29;19949;-77
2022/04/18 11:19:09;;;;;;;;;;;;;;;20.42;38.94;101661.88;4944818;28;20307;-78
2022/04/18 11:22:04;;;;;;;;;;;;;;;20.42;38.92;101661.88;4954243;28;20032;-77
2022/04/18 11:24:48;;;;;;;;;;;;;;;20.41;38.76;101661.06;4945527;28;19954;-78
2022/04/18 11:27:20;;;;;;;;;;;;;;;20.41;38.61;101658.31;4947239;29;20351;-78
2022/04/18 11:29:50;;;;;;;;;;;;;;;20.42;38.58;101659.13;4954600;28;19923;-78
2022/04/18 11:32:16;;;;;;;;;;;;;;;20.42;38.41;101659.13;4954432;29;19989;-76
2022/04/18 11:34:47;;;;;;;;;;;;;;;20.42;38.38;101659.94;4961362;28;19923;-76
2022/04/18 11:37:20;;;;;;;;;;;;;;;20.43;38.42;101652.53;4955470;28;19962;-76
2022/04/18 11:39:49;;;;;;;;;;;;;;;20.43;38.49;101647.03;4969125;28;19922;-76
2022/04/18 11:42:15;;;;;;;;;;;;;;;20.44;38.30;101652.25;4954760;28;20358;-77
2022/04/18 11:44:41;;;;;;;;;;;;;;;20.44;38.16;101646.75;4950288;28;20069;-77
2022/04/18 11:47:08;;;;;;;;;;;;;;;20.43;38.29;101642.34;4968821;28;20017;-78
2022/04/18 11:49:33;;;;;;;;;;;;;;;20.44;38.25;101634.97;4954029;28;19918;-84
2022/04/18 11:51:58;;;;;;;;;;;;;;;20.44;38.33;101638.53;4953740;28;19922;-76
2022/04/18 11:54:24;;;;;;;;;;;;;;;20.45;38.34;101639.34;4942271;28;19923;-77
2022/04/18 11:56:56;;;;;;;;;;;;;;;20.44;38.14;101632.22;4948988;29;19984;-76
2022/04/18 11:59:21;;;;;;;;;;;;;;;20.44;37.96;101644.00;4954611;28;20058;-78
2022/04/18 12:07:16;;;;;;;;;;;;;;;20.44;38.12;101634.97;4950337;29;19933;-82
2022/04/18 12:09:42;;;;;;;;;;;;;;;20.44;38.04;101627.53;4938888;29;20013;-76
2022/04/18 12:12:07;;;;;;;;;;;;;;;20.44;37.92;101632.22;4954145;29;20315;-77
2022/04/18 12:14:32;;;;;;;;;;;;;;;20.45;37.98;101625.63;4953890;28;19923;-76
2022/04/18 12:16:59;;;;;;;;;;;;;;;20.45;37.69;101628.34;4953501;28;20430;-77
2022/04/18 12:19:27;;;;;;;;;;;;;;;20.44;37.94;101624.78;4952807;28;20287;-80
2022/04/18 12:21:52;;;;;;;;;;;;;;;20.44;37.85;101624.00;4954367;29;19991;-76
2022/04/18 12:24:18;;;;;;;;;;;;;;;20.45;37.76;101618.19;4968903;28;20379;-78
2022/04/18 12:26:49;;;;;;;;;;;;;;;20.44;37.75;101615.75;4948460;28;19954;-76
2022/04/18 12:29:14;;;;;;;;;;;;;;;20.46;37.65;101614.34;4955000;28;19982;-78
2022/04/18 12:31:40;;;;;;;;;;;;;;;20.45;37.77;101609.97;4954039;28;19923;-76
2022/04/18 12:34:06;;;;;;;;;;;;;;;20.45;37.74;101600.91;4952814;29;20372;-77
2022/04/18 12:36:35;;;;;;;;;;;;;;;20.44;37.84;101600.09;4954973;28;19923;-77
2022/04/18 12:39:00;;;;;;;;;;;;;;;20.44;37.17;101597.34;4958013;28;19926;-77
2022/04/18 12:41:30;;;;;;;;;;;;;;;20.44;37.51;101586.38;4955969;28;19926;-77
2022/04/18 12:43:56;;;;;;;;;;;;;;;20.46;37.62;101591.56;4956539;28;20033;-77
2022/04/18 12:46:25;;;;;;;;;;;;;;;20.45;37.66;101589.94;4957540;29;19968;-78
2022/04/18 12:48:51;;;;;;;;;;;;;;;20.45;37.37;101589.94;4956317;29;19927;-79
2022/04/18 12:51:17;;;;;;;;;;;;;;;20.45;37.37;101581.69;4947430;29;19933;-78
2022/04/18 12:53:49;;;;;;;;;;;;;;;20.46;37.39;101581.44;4955527;28;19930;-78
2022/04/18 12:56:20;;;;;;;;;;;;;;;20.48;37.49;101576.44;4945036;28;19926;-78
2022/04/18 12:58:46;;;;;;;;;;;;;;;20.49;37.62;101571.78;4949532;28;19922;-77